sensor_id;sensor_type;location;lat;lon;timestamp;temperature;humidity
52943;DHT22;38809;53.300;6.614;2022-10-16T00:01:59;12.80;99.90
52943;DHT22;38809;53.300;6.614;2022-10-16T00:04:24;12.80;99.90
52943;DHT22;38809;53.300;6.614;2022-10-16T00:06:50;12.80;99.90
52943;DHT22;38809;53.300;6.614;2022-10-16T00:09:16;12.80;99.90
52943;DHT22;38809;53.300;6.614;2022-10-16T00:11:42;12.80;99.90
52943;DHT22;38809;53.300;6.614;2022-10-16T00:14:11;12.80;99.90
52943;DHT22;38809;53.300;6.614;2022-10-16T00:16:37;12.80;99.90
52943;DHT22;38809;53.300;6.614;2022-10-16T00:19:03;12.80;99.90
52943;DHT22;38809;53.300;6.614;2022-10-16T00:21:30;12.80;99.90
52943;DHT22;38809;53.300;6.614;2022-10-16T00:24:06;12.80;99.90
52943;DHT22;38809;53.300;6.614;2022-10-16T00:26:33;12.80;99.90
52943;DHT22;38809;53.300;6.614;2022-10-16T00:29:00;12.80;99.90
52943;DHT22;38809;53.300;6.614;2022-10-16T00:31:26;12.80;99.90
52943;DHT22;38809;53.300;6.614;2022-10-16T00:33:52;12.80;99.90
52943;DHT22;38809;53.300;6.614;2022-10-16T00:36:20;12.80;99.90
52943;DHT22;38809;53.300;6.614;2022-10-16T00:38:46;12.80;99.90
52943;DHT22;38809;53.300;6.614;2022-10-16T00:41:15;12.90;99.90
52943;DHT22;38809;53.300;6.614;2022-10-16T00:43:46;12.70;99.90
52943;DHT22;38809;53.300;6.614;2022-10-16T00:46:32;12.80;99.90
52943;DHT22;38809;53.300;6.614;2022-10-16T00:49:09;12.80;99.90
52943;DHT22;38809;53.300;6.614;2022-10-16T00:51:45;12.70;99.90
52943;DHT22;38809;53.300;6.614;2022-10-16T00:54:26;12.70;99.90
52943;DHT22;38809;53.300;6.614;2022-10-16T00:56:54;12.70;99.90
52943;DHT22;38809;53.300;6.614;2022-10-16T00:59:24;12.70;99.90
52943;DHT22;38809;53.300;6.614;2022-10-16T01:01:51;12.70;99.90
52943;DHT22;38809;53.300;6.614;2022-10-16T01:04:17;12.80;99.90
52943;DHT22;38809;53.300;6.614;2022-10-16T01:07:06;12.80;99.90
52943;DHT22;38809;53.300;6.614;2022-10-16T01:18:30;12.70;99.90
52943;DHT22;38809;53.300;6.614;2022-10-16T01:24:03;12.70;99.90
52943;DHT22;38809;53.300;6.614;2022-10-16T01:29:11;12.80;99.90
52943;DHT22;38809;53.300;6.614;2022-10-16T01:31:40;12.80;99.90
52943;DHT22;38809;53.300;6.614;2022-10-16T01:34:15;12.80;99.90
52943;DHT22;38809;53.300;6.614;2022-10-16T01:36:51;12.80;99.90
52943;DHT22;38809;53.300;6.614;2022-10-16T01:39:25;12.80;99.90
52943;DHT22;38809;53.300;6.614;2022-10-16T01:42:01;12.80;99.90
52943;DHT22;38809;53.300;6.614;2022-10-16T01:44:32;12.80;99.90
52943;DHT22;38809;53.300;6.614;2022-10-16T01:46:59;12.80;99.90
52943;DHT22;38809;53.300;6.614;2022-10-16T01:49:29;12.80;99.90
52943;DHT22;38809;53.300;6.614;2022-10-16T01:51:59;12.80;99.90
52943;DHT22;38809;53.300;6.614;2022-10-16T01:54:29;12.90;99.90
52943;DHT22;38809;53.300;6.614;2022-10-16T01:56:57;12.80;99.90
52943;DHT22;38809;53.300;6.614;2022-10-16T01:59:26;12.80;99.90
52943;DHT22;38809;53.300;6.614;2022-10-16T02:01:58;12.90;99.90
52943;DHT22;38809;53.300;6.614;2022-10-16T02:04:36;12.90;99.90
52943;DHT22;38809;53.300;6.614;2022-10-16T02:07:03;12.90;99.90
52943;DHT22;38809;53.300;6.614;2022-10-16T02:09:30;12.90;99.90
52943;DHT22;38809;53.300;6.614;2022-10-16T02:11:59;12.90;99.90
52943;DHT22;38809;53.300;6.614;2022-10-16T02:14:28;12.90;99.90
52943;DHT22;38809;53.300;6.614;2022-10-16T02:16:54;12.90;99.90
52943;DHT22;38809;53.300;6.614;2022-10-16T02:19:20;12.90;99.90
52943;DHT22;38809;53.300;6.614;2022-10-16T02:24:38;12.90;99.90
52943;DHT22;38809;53.300;6.614;2022-10-16T02:27:20;12.90;99.90
52943;DHT22;38809;53.300;6.614;2022-10-16T02:29:53;12.90;99.90
52943;DHT22;38809;53.300;6.614;2022-10-16T02:32:25;13.00;99.90
52943;DHT22;38809;53.300;6.614;2022-10-16T02:34:54;13.00;99.90
52943;DHT22;38809;53.300;6.614;2022-10-16T02:37:21;13.00;99.90
52943;DHT22;38809;53.300;6.614;2022-10-16T02:39:46;12.90;99.90
52943;DHT22;38809;53.300;6.614;2022-10-16T02:42:13;13.00;99.90
52943;DHT22;38809;53.300;6.614;2022-10-16T02:44:39;13.00;99.90
52943;DHT22;38809;53.300;6.614;2022-10-16T02:47:05;12.90;99.90
52943;DHT22;38809;53.300;6.614;2022-10-16T02:49:31;12.90;99.90
52943;DHT22;38809;53.300;6.614;2022-10-16T02:51:57;12.90;99.90
52943;DHT22;38809;53.300;6.614;2022-10-16T02:54:22;12.90;99.90
52943;DHT22;38809;53.300;6.614;2022-10-16T02:56:49;13.00;99.90
52943;DHT22;38809;53.300;6.614;2022-10-16T02:59:14;13.00;99.90
52943;DHT22;38809;53.300;6.614;2022-10-16T03:01:40;13.00;99.90
52943;DHT22;38809;53.300;6.614;2022-10-16T03:04:06;12.90;99.90
52943;DHT22;38809;53.300;6.614;2022-10-16T03:06:31;12.90;99.90
52943;DHT22;38809;53.300;6.614;2022-10-16T03:08:57;12.90;99.90
52943;DHT22;38809;53.300;6.614;2022-10-16T03:11:23;12.90;99.90
52943;DHT22;38809;53.300;6.614;2022-10-16T03:13:48;12.80;99.90
52943;DHT22;38809;53.300;6.614;2022-10-16T03:16:14;12.80;99.90
52943;DHT22;38809;53.300;6.614;2022-10-16T03:18:40;12.80;99.90
52943;DHT22;38809;53.300;6.614;2022-10-16T03:21:05;12.90;99.90
52943;DHT22;38809;53.300;6.614;2022-10-16T03:23:31;12.90;99.90
52943;DHT22;38809;53.300;6.614;2022-10-16T03:25:57;12.90;99.90
52943;DHT22;38809;53.300;6.614;2022-10-16T03:28:22;12.90;99.90
52943;DHT22;38809;53.300;6.614;2022-10-16T03:30:48;12.90;99.90
52943;DHT22;38809;53.300;6.614;2022-10-16T03:33:14;12.80;99.90
52943;DHT22;38809;53.300;6.614;2022-10-16T03:35:39;12.90;99.90
52943;DHT22;38809;53.300;6.614;2022-10-16T03:38:05;12.90;99.90
52943;DHT22;38809;53.300;6.614;2022-10-16T03:40:31;12.90;99.90
52943;DHT22;38809;53.300;6.614;2022-10-16T03:42:57;12.90;99.90
52943;DHT22;38809;53.300;6.614;2022-10-16T03:45:24;12.90;99.90
52943;DHT22;38809;53.300;6.614;2022-10-16T03:47:49;12.90;99.90
52943;DHT22;38809;53.300;6.614;2022-10-16T03:50:15;12.90;99.90
52943;DHT22;38809;53.300;6.614;2022-10-16T03:52:41;12.90;99.90
52943;DHT22;38809;53.300;6.614;2022-10-16T03:55:07;12.90;99.90
52943;DHT22;38809;53.300;6.614;2022-10-16T03:57:33;12.80;99.90
52943;DHT22;38809;53.300;6.614;2022-10-16T03:59:59;12.90;99.90
52943;DHT22;38809;53.300;6.614;2022-10-16T04:02:24;12.90;99.90
52943;DHT22;38809;53.300;6.614;2022-10-16T04:04:50;12.90;99.90
52943;DHT22;38809;53.300;6.614;2022-10-16T04:07:16;12.90;99.90
52943;DHT22;38809;53.300;6.614;2022-10-16T04:09:41;12.80;99.90
52943;DHT22;38809;53.300;6.614;2022-10-16T04:12:07;12.80;99.90
52943;DHT22;38809;53.300;6.614;2022-10-16T04:14:33;12.80;99.90
52943;DHT22;38809;53.300;6.614;2022-10-16T04:16:59;12.70;99.90
52943;DHT22;38809;53.300;6.614;2022-10-16T04:19:25;12.70;99.90
52943;DHT22;38809;53.300;6.614;2022-10-16T04:21:51;12.70;99.90
52943;DHT22;38809;53.300;6.614;2022-10-16T04:24:17;12.70;99.90
52943;DHT22;38809;53.300;6.614;2022-10-16T04:26:42;12.70;99.90
52943;DHT22;38809;53.300;6.614;2022-10-16T04:29:08;12.80;99.90
52943;DHT22;38809;53.300;6.614;2022-10-16T04:31:34;12.60;99.90
52943;DHT22;38809;53.300;6.614;2022-10-16T04:33:59;12.60;99.90
52943;DHT22;38809;53.300;6.614;2022-10-16T04:36:25;12.70;99.90
52943;DHT22;38809;53.300;6.614;2022-10-16T04:38:51;12.60;99.90
52943;DHT22;38809;53.300;6.614;2022-10-16T04:41:16;12.60;99.90
52943;DHT22;38809;53.300;6.614;2022-10-16T04:43:42;12.70;99.90
52943;DHT22;38809;53.300;6.614;2022-10-16T04:46:08;12.70;99.90
52943;DHT22;38809;53.300;6.614;2022-10-16T04:48:35;12.70;99.90
52943;DHT22;38809;53.300;6.614;2022-10-16T04:51:01;12.70;99.90
52943;DHT22;38809;53.300;6.614;2022-10-16T04:53:26;12.70;99.90
52943;DHT22;38809;53.300;6.614;2022-10-16T04:55:52;12.80;99.90
52943;DHT22;38809;53.300;6.614;2022-10-16T04:58:18;12.80;99.90
52943;DHT22;38809;53.300;6.614;2022-10-16T05:00:44;12.80;99.90
52943;DHT22;38809;53.300;6.614;2022-10-16T05:03:12;12.80;99.90
52943;DHT22;38809;53.300;6.614;2022-10-16T05:05:42;12.80;99.90
52943;DHT22;38809;53.300;6.614;2022-10-16T05:08:09;12.80;99.90
52943;DHT22;38809;53.300;6.614;2022-10-16T05:10:34;12.80;99.90
52943;DHT22;38809;53.300;6.614;2022-10-16T05:13:00;12.70;99.90
52943;DHT22;38809;53.300;6.614;2022-10-16T05:15:26;12.80;99.90
52943;DHT22;38809;53.300;6.614;2022-10-16T05:17:55;12.80;99.90
52943;DHT22;38809;53.300;6.614;2022-10-16T05:20:21;12.80;99.90
52943;DHT22;38809;53.300;6.614;2022-10-16T05:22:47;12.80;99.90
52943;DHT22;38809;53.300;6.614;2022-10-16T05:25:13;12.80;99.90
52943;DHT22;38809;53.300;6.614;2022-10-16T05:27:39;12.70;99.90
52943;DHT22;38809;53.300;6.614;2022-10-16T05:30:05;12.70;99.90
52943;DHT22;38809;53.300;6.614;2022-10-16T05:32:30;12.80;99.90
52943;DHT22;38809;53.300;6.614;2022-10-16T05:34:56;12.80;99.90
52943;DHT22;38809;53.300;6.614;2022-10-16T05:37:22;12.80;99.90
52943;DHT22;38809;53.300;6.614;2022-10-16T05:39:47;12.80;99.90
52943;DHT22;38809;53.300;6.614;2022-10-16T05:42:13;12.80;99.90
52943;DHT22;38809;53.300;6.614;2022-10-16T05:44:39;12.80;99.90
52943;DHT22;38809;53.300;6.614;2022-10-16T05:47:05;12.80;99.90
52943;DHT22;38809;53.300;6.614;2022-10-16T05:49:31;12.70;99.90
52943;DHT22;38809;53.300;6.614;2022-10-16T05:51:57;12.70;99.90
52943;DHT22;38809;53.300;6.614;2022-10-16T05:54:22;12.70;99.90
52943;DHT22;38809;53.300;6.614;2022-10-16T05:56:48;12.70;99.90
52943;DHT22;38809;53.300;6.614;2022-10-16T05:59:13;12.70;99.90
52943;DHT22;38809;53.300;6.614;2022-10-16T06:01:39;12.70;99.90
52943;DHT22;38809;53.300;6.614;2022-10-16T06:04:05;12.70;99.90
52943;DHT22;38809;53.300;6.614;2022-10-16T06:06:30;12.70;99.90
52943;DHT22;38809;53.300;6.614;2022-10-16T06:08:57;12.70;99.90
52943;DHT22;38809;53.300;6.614;2022-10-16T06:11:26;12.70;99.90
52943;DHT22;38809;53.300;6.614;2022-10-16T06:13:58;12.70;99.90
52943;DHT22;38809;53.300;6.614;2022-10-16T06:16:25;12.70;99.90
52943;DHT22;38809;53.300;6.614;2022-10-16T06:18:55;12.60;99.90
52943;DHT22;38809;53.300;6.614;2022-10-16T06:21:26;12.60;99.90
52943;DHT22;38809;53.300;6.614;2022-10-16T06:23:52;12.60;99.90
52943;DHT22;38809;53.300;6.614;2022-10-16T06:26:20;12.60;99.90
52943;DHT22;38809;53.300;6.614;2022-10-16T06:28:47;12.60;99.90
52943;DHT22;38809;53.300;6.614;2022-10-16T06:31:12;12.70;99.90
52943;DHT22;38809;53.300;6.614;2022-10-16T06:33:39;12.70;99.90
52943;DHT22;38809;53.300;6.614;2022-10-16T06:36:06;12.70;99.90
52943;DHT22;38809;53.300;6.614;2022-10-16T06:38:34;12.70;99.90
52943;DHT22;38809;53.300;6.614;2022-10-16T06:40:59;12.80;99.90
52943;DHT22;38809;53.300;6.614;2022-10-16T06:43:26;12.80;99.90
52943;DHT22;38809;53.300;6.614;2022-10-16T06:45:55;12.80;99.90
52943;DHT22;38809;53.300;6.614;2022-10-16T06:48:22;12.80;99.90
52943;DHT22;38809;53.300;6.614;2022-10-16T06:51:18;12.80;99.90
52943;DHT22;38809;53.300;6.614;2022-10-16T06:53:46;12.80;99.90
52943;DHT22;38809;53.300;6.614;2022-10-16T06:56:22;12.80;99.90
52943;DHT22;38809;53.300;6.614;2022-10-16T06:58:49;12.80;99.90
52943;DHT22;38809;53.300;6.614;2022-10-16T07:01:17;12.90;99.90
52943;DHT22;38809;53.300;6.614;2022-10-16T07:03:45;12.90;99.90
52943;DHT22;38809;53.300;6.614;2022-10-16T07:06:13;12.90;99.90
52943;DHT22;38809;53.300;6.614;2022-10-16T07:08:41;12.90;99.90
52943;DHT22;38809;53.300;6.614;2022-10-16T07:11:09;13.00;99.90
52943;DHT22;38809;53.300;6.614;2022-10-16T07:13:37;13.00;99.90
52943;DHT22;38809;53.300;6.614;2022-10-16T07:16:14;13.00;99.90
52943;DHT22;38809;53.300;6.614;2022-10-16T07:18:41;13.00;99.90
52943;DHT22;38809;53.300;6.614;2022-10-16T07:21:13;13.10;99.90
52943;DHT22;38809;53.300;6.614;2022-10-16T07:23:39;13.10;99.90
52943;DHT22;38809;53.300;6.614;2022-10-16T07:26:05;13.20;99.90
52943;DHT22;38809;53.300;6.614;2022-10-16T07:28:32;13.20;99.90
52943;DHT22;38809;53.300;6.614;2022-10-16T07:31:09;13.20;99.90
52943;DHT22;38809;53.300;6.614;2022-10-16T07:33:37;13.20;99.90
52943;DHT22;38809;53.300;6.614;2022-10-16T07:36:05;13.30;99.90
52943;DHT22;38809;53.300;6.614;2022-10-16T07:38:31;13.40;99.90
52943;DHT22;38809;53.300;6.614;2022-10-16T07:40:58;13.40;99.90
52943;DHT22;38809;53.300;6.614;2022-10-16T07:43:25;13.30;99.90
52943;DHT22;38809;53.300;6.614;2022-10-16T07:45:51;13.40;99.90
52943;DHT22;38809;53.300;6.614;2022-10-16T07:48:17;13.40;99.90
52943;DHT22;38809;53.300;6.614;2022-10-16T07:50:44;13.50;99.90
52943;DHT22;38809;53.300;6.614;2022-10-16T07:53:11;13.50;99.90
52943;DHT22;38809;53.300;6.614;2022-10-16T07:55:37;13.50;99.90
52943;DHT22;38809;53.300;6.614;2022-10-16T07:58:03;13.40;99.90
52943;DHT22;38809;53.300;6.614;2022-10-16T08:00:28;13.30;99.90
52943;DHT22;38809;53.300;6.614;2022-10-16T08:02:54;13.30;99.90
52943;DHT22;38809;53.300;6.614;2022-10-16T08:05:20;13.30;99.90
52943;DHT22;38809;53.300;6.614;2022-10-16T08:07:49;13.30;99.90
52943;DHT22;38809;53.300;6.614;2022-10-16T08:10:17;13.30;99.90
52943;DHT22;38809;53.300;6.614;2022-10-16T08:12:43;13.20;99.90
52943;DHT22;38809;53.300;6.614;2022-10-16T08:15:09;13.30;99.90
52943;DHT22;38809;53.300;6.614;2022-10-16T08:17:35;13.30;99.90
52943;DHT22;38809;53.300;6.614;2022-10-16T08:20:00;13.40;99.90
52943;DHT22;38809;53.300;6.614;2022-10-16T08:22:27;13.40;99.90
52943;DHT22;38809;53.300;6.614;2022-10-16T08:24:53;13.50;99.90
52943;DHT22;38809;53.300;6.614;2022-10-16T08:27:18;13.60;99.90
52943;DHT22;38809;53.300;6.614;2022-10-16T08:29:44;13.70;99.90
52943;DHT22;38809;53.300;6.614;2022-10-16T08:32:09;13.80;99.90
52943;DHT22;38809;53.300;6.614;2022-10-16T08:34:35;13.90;99.90
52943;DHT22;38809;53.300;6.614;2022-10-16T08:37:01;13.80;99.90
52943;DHT22;38809;53.300;6.614;2022-10-16T08:39:27;14.00;99.90
52943;DHT22;38809;53.300;6.614;2022-10-16T08:44:49;14.00;99.90
52943;DHT22;38809;53.300;6.614;2022-10-16T08:47:26;14.00;99.90
52943;DHT22;38809;53.300;6.614;2022-10-16T08:50:02;14.00;99.90
52943;DHT22;38809;53.300;6.614;2022-10-16T08:52:35;14.00;99.90
52943;DHT22;38809;53.300;6.614;2022-10-16T08:55:04;14.00;99.90
52943;DHT22;38809;53.300;6.614;2022-10-16T08:57:30;14.10;99.90
52943;DHT22;38809;53.300;6.614;2022-10-16T09:00:12;14.20;99.90
52943;DHT22;38809;53.300;6.614;2022-10-16T09:05:34;14.40;99.90
52943;DHT22;38809;53.300;6.614;2022-10-16T09:13:21;14.20;99.90
52943;DHT22;38809;53.300;6.614;2022-10-16T09:18:53;14.20;99.90
52943;DHT22;38809;53.300;6.614;2022-10-16T09:21:29;14.30;99.90
52943;DHT22;38809;53.300;6.614;2022-10-16T09:24:25;14.50;99.90
52943;DHT22;38809;53.300;6.614;2022-10-16T09:26:52;14.90;99.90
52943;DHT22;38809;53.300;6.614;2022-10-16T09:29:19;15.00;99.90
52943;DHT22;38809;53.300;6.614;2022-10-16T09:31:46;15.10;99.90
52943;DHT22;38809;53.300;6.614;2022-10-16T09:34:36;15.10;99.90
52943;DHT22;38809;53.300;6.614;2022-10-16T09:37:09;15.20;99.90
52943;DHT22;38809;53.300;6.614;2022-10-16T09:39:52;15.30;99.90
52943;DHT22;38809;53.300;6.614;2022-10-16T09:42:21;15.30;99.90
52943;DHT22;38809;53.300;6.614;2022-10-16T09:44:50;15.50;99.90
52943;DHT22;38809;53.300;6.614;2022-10-16T09:47:19;15.50;99.90
52943;DHT22;38809;53.300;6.614;2022-10-16T09:49:54;15.40;99.90
52943;DHT22;38809;53.300;6.614;2022-10-16T09:52:21;15.90;99.90
52943;DHT22;38809;53.300;6.614;2022-10-16T09:54:55;15.90;99.90
52943;DHT22;38809;53.300;6.614;2022-10-16T09:57:21;15.70;99.90
52943;DHT22;38809;53.300;6.614;2022-10-16T09:59:52;15.80;99.90
52943;DHT22;38809;53.300;6.614;2022-10-16T10:02:37;15.80;99.90
52943;DHT22;38809;53.300;6.614;2022-10-16T10:05:06;16.00;99.90
52943;DHT22;38809;53.300;6.614;2022-10-16T10:07:43;16.20;99.90
52943;DHT22;38809;53.300;6.614;2022-10-16T10:10:22;16.20;99.90
52943;DHT22;38809;53.300;6.614;2022-10-16T10:12:48;16.20;99.90
52943;DHT22;38809;53.300;6.614;2022-10-16T10:15:14;16.10;99.90
52943;DHT22;38809;53.300;6.614;2022-10-16T10:17:49;16.20;99.90
52943;DHT22;38809;53.300;6.614;2022-10-16T10:20:31;16.30;99.90
52943;DHT22;38809;53.300;6.614;2022-10-16T10:23:13;16.40;99.90
52943;DHT22;38809;53.300;6.614;2022-10-16T10:31:25;16.30;99.90
52943;DHT22;38809;53.300;6.614;2022-10-16T10:36:40;16.50;99.90
52943;DHT22;38809;53.300;6.614;2022-10-16T10:52:56;16.50;99.90
52943;DHT22;38809;53.300;6.614;2022-10-16T11:00:51;16.70;99.90
52943;DHT22;38809;53.300;6.614;2022-10-16T11:06:07;16.70;99.90
52943;DHT22;38809;53.300;6.614;2022-10-16T11:08:40;16.70;99.90
52943;DHT22;38809;53.300;6.614;2022-10-16T11:11:24;16.90;99.90
52943;DHT22;38809;53.300;6.614;2022-10-16T11:14:06;17.00;99.90
52943;DHT22;38809;53.300;6.614;2022-10-16T11:16:44;17.10;99.90
52943;DHT22;38809;53.300;6.614;2022-10-16T11:22:18;17.20;99.90
52943;DHT22;38809;53.300;6.614;2022-10-16T11:30:26;17.00;99.90
52943;DHT22;38809;53.300;6.614;2022-10-16T11:32:55;16.80;99.90
52943;DHT22;38809;53.300;6.614;2022-10-16T11:35:32;16.50;99.90
52943;DHT22;38809;53.300;6.614;2022-10-16T11:38:07;16.40;99.90
52943;DHT22;38809;53.300;6.614;2022-10-16T11:40:38;16.30;99.90
52943;DHT22;38809;53.300;6.614;2022-10-16T11:43:29;16.20;99.90
52943;DHT22;38809;53.300;6.614;2022-10-16T11:46:07;16.20;99.90
52943;DHT22;38809;53.300;6.614;2022-10-16T11:48:49;16.00;99.90
52943;DHT22;38809;53.300;6.614;2022-10-16T11:51:17;15.80;99.90
52943;DHT22;38809;53.300;6.614;2022-10-16T11:53:47;15.60;99.90
52943;DHT22;38809;53.300;6.614;2022-10-16T11:56:19;15.50;99.90
52943;DHT22;38809;53.300;6.614;2022-10-16T12:09:34;16.20;99.90
52943;DHT22;38809;53.300;6.614;2022-10-16T12:12:00;16.50;99.90
52943;DHT22;38809;53.300;6.614;2022-10-16T12:17:03;16.80;99.90
52943;DHT22;38809;53.300;6.614;2022-10-16T12:19:31;16.80;99.90
52943;DHT22;38809;53.300;6.614;2022-10-16T12:21:58;16.70;99.90
52943;DHT22;38809;53.300;6.614;2022-10-16T12:24:35;16.90;99.90
52943;DHT22;38809;53.300;6.614;2022-10-16T12:27:03;16.70;99.90
52943;DHT22;38809;53.300;6.614;2022-10-16T12:32:26;16.30;99.90
52943;DHT22;38809;53.300;6.614;2022-10-16T12:34:53;16.10;99.90
52943;DHT22;38809;53.300;6.614;2022-10-16T12:37:23;16.00;99.90
52943;DHT22;38809;53.300;6.614;2022-10-16T12:39:50;15.90;99.90
52943;DHT22;38809;53.300;6.614;2022-10-16T12:44:52;16.20;99.90
52943;DHT22;38809;53.300;6.614;2022-10-16T12:49:55;16.10;99.90
52943;DHT22;38809;53.300;6.614;2022-10-16T12:52:47;16.00;99.90
52943;DHT22;38809;53.300;6.614;2022-10-16T12:55:18;15.90;99.90
52943;DHT22;38809;53.300;6.614;2022-10-16T12:58:10;15.80;99.90
52943;DHT22;38809;53.300;6.614;2022-10-16T13:00:50;15.70;99.90
52943;DHT22;38809;53.300;6.614;2022-10-16T13:09:27;15.70;99.90
52943;DHT22;38809;53.300;6.614;2022-10-16T13:14:58;15.80;99.90
52943;DHT22;38809;53.300;6.614;2022-10-16T13:17:47;15.80;99.90
52943;DHT22;38809;53.300;6.614;2022-10-16T13:23:17;15.90;99.90
52943;DHT22;38809;53.300;6.614;2022-10-16T13:28:37;15.90;99.90
52943;DHT22;38809;53.300;6.614;2022-10-16T13:31:04;16.00;99.90
52943;DHT22;38809;53.300;6.614;2022-10-16T13:33:42;16.00;99.90
52943;DHT22;38809;53.300;6.614;2022-10-16T13:36:25;16.00;99.90
52943;DHT22;38809;53.300;6.614;2022-10-16T13:39:12;16.10;99.90
52943;DHT22;38809;53.300;6.614;2022-10-16T13:41:38;16.10;99.90
52943;DHT22;38809;53.300;6.614;2022-10-16T13:44:04;16.10;99.90
52943;DHT22;38809;53.300;6.614;2022-10-16T13:46:30;16.10;99.90
52943;DHT22;38809;53.300;6.614;2022-10-16T13:49:04;16.10;99.90
52943;DHT22;38809;53.300;6.614;2022-10-16T13:51:31;16.20;99.90
52943;DHT22;38809;53.300;6.614;2022-10-16T13:53:57;16.20;99.90
52943;DHT22;38809;53.300;6.614;2022-10-16T13:56:28;16.30;99.90
52943;DHT22;38809;53.300;6.614;2022-10-16T13:59:05;16.30;99.90
52943;DHT22;38809;53.300;6.614;2022-10-16T14:01:35;16.30;99.90
52943;DHT22;38809;53.300;6.614;2022-10-16T14:04:07;16.30;99.90
52943;DHT22;38809;53.300;6.614;2022-10-16T14:06:35;16.20;99.90
52943;DHT22;38809;53.300;6.614;2022-10-16T14:09:08;16.30;99.90
52943;DHT22;38809;53.300;6.614;2022-10-16T14:11:46;16.20;99.90
52943;DHT22;38809;53.300;6.614;2022-10-16T14:14:13;16.20;99.90
52943;DHT22;38809;53.300;6.614;2022-10-16T14:16:41;16.20;99.90
52943;DHT22;38809;53.300;6.614;2022-10-16T14:19:25;16.10;99.90
52943;DHT22;38809;53.300;6.614;2022-10-16T14:21:52;16.10;99.90
52943;DHT22;38809;53.300;6.614;2022-10-16T14:24:32;16.20;99.90
52943;DHT22;38809;53.300;6.614;2022-10-16T14:26:59;16.10;99.90
52943;DHT22;38809;53.300;6.614;2022-10-16T14:29:27;16.20;99.90
52943;DHT22;38809;53.300;6.614;2022-10-16T14:32:02;16.10;99.90
52943;DHT22;38809;53.300;6.614;2022-10-16T14:34:37;16.20;99.90
52943;DHT22;38809;53.300;6.614;2022-10-16T14:37:28;16.10;99.90
52943;DHT22;38809;53.300;6.614;2022-10-16T14:39:55;16.10;99.90
52943;DHT22;38809;53.300;6.614;2022-10-16T14:42:23;16.10;99.90
52943;DHT22;38809;53.300;6.614;2022-10-16T14:44:51;16.10;99.90
52943;DHT22;38809;53.300;6.614;2022-10-16T14:47:23;16.10;99.90
52943;DHT22;38809;53.300;6.614;2022-10-16T14:49:54;16.00;99.90
52943;DHT22;38809;53.300;6.614;2022-10-16T14:52:23;16.00;99.90
52943;DHT22;38809;53.300;6.614;2022-10-16T14:54:49;15.90;99.90
52943;DHT22;38809;53.300;6.614;2022-10-16T14:57:27;15.80;99.90
52943;DHT22;38809;53.300;6.614;2022-10-16T14:59:53;15.70;99.90
52943;DHT22;38809;53.300;6.614;2022-10-16T15:02:29;15.60;99.90
52943;DHT22;38809;53.300;6.614;2022-10-16T15:04:57;15.60;99.90
52943;DHT22;38809;53.300;6.614;2022-10-16T15:07:24;15.50;99.90
52943;DHT22;38809;53.300;6.614;2022-10-16T15:09:50;15.50;99.90
52943;DHT22;38809;53.300;6.614;2022-10-16T15:12:16;15.40;99.90
52943;DHT22;38809;53.300;6.614;2022-10-16T15:14:42;15.40;99.90
52943;DHT22;38809;53.300;6.614;2022-10-16T15:17:11;15.40;99.90
52943;DHT22;38809;53.300;6.614;2022-10-16T15:19:37;15.40;99.90
52943;DHT22;38809;53.300;6.614;2022-10-16T15:22:02;15.30;99.90
52943;DHT22;38809;53.300;6.614;2022-10-16T15:24:28;15.30;99.90
52943;DHT22;38809;53.300;6.614;2022-10-16T15:26:54;15.30;99.90
52943;DHT22;38809;53.300;6.614;2022-10-16T15:29:19;15.20;99.90
52943;DHT22;38809;53.300;6.614;2022-10-16T15:31:45;15.20;99.90
52943;DHT22;38809;53.300;6.614;2022-10-16T15:34:13;15.20;99.90
52943;DHT22;38809;53.300;6.614;2022-10-16T15:36:39;15.20;99.90
52943;DHT22;38809;53.300;6.614;2022-10-16T15:39:08;15.10;99.90
52943;DHT22;38809;53.300;6.614;2022-10-16T15:41:37;15.10;99.90
52943;DHT22;38809;53.300;6.614;2022-10-16T15:44:03;15.10;99.90
52943;DHT22;38809;53.300;6.614;2022-10-16T15:46:29;15.00;99.90
52943;DHT22;38809;53.300;6.614;2022-10-16T15:48:57;15.00;99.90
52943;DHT22;38809;53.300;6.614;2022-10-16T15:51:24;14.90;99.90
52943;DHT22;38809;53.300;6.614;2022-10-16T15:53:50;14.90;99.90
52943;DHT22;38809;53.300;6.614;2022-10-16T15:56:17;14.80;99.90
52943;DHT22;38809;53.300;6.614;2022-10-16T15:58:43;14.70;99.90
52943;DHT22;38809;53.300;6.614;2022-10-16T16:01:09;14.70;99.90
52943;DHT22;38809;53.300;6.614;2022-10-16T16:03:38;14.70;99.90
52943;DHT22;38809;53.300;6.614;2022-10-16T16:06:08;14.70;99.90
52943;DHT22;38809;53.300;6.614;2022-10-16T16:08:34;14.60;99.90
52943;DHT22;38809;53.300;6.614;2022-10-16T16:11:05;14.60;99.90
52943;DHT22;38809;53.300;6.614;2022-10-16T16:13:31;14.60;99.90
52943;DHT22;38809;53.300;6.614;2022-10-16T16:15:57;14.50;99.90
52943;DHT22;38809;53.300;6.614;2022-10-16T16:18:23;14.50;99.90
52943;DHT22;38809;53.300;6.614;2022-10-16T16:20:50;14.50;99.90
52943;DHT22;38809;53.300;6.614;2022-10-16T16:23:16;14.50;99.90
52943;DHT22;38809;53.300;6.614;2022-10-16T16:25:42;14.40;99.90
52943;DHT22;38809;53.300;6.614;2022-10-16T16:28:07;14.20;99.90
52943;DHT22;38809;53.300;6.614;2022-10-16T16:30:36;14.10;99.90
52943;DHT22;38809;53.300;6.614;2022-10-16T16:33:01;14.00;99.90
52943;DHT22;38809;53.300;6.614;2022-10-16T16:35:27;14.00;99.90
52943;DHT22;38809;53.300;6.614;2022-10-16T16:37:53;14.00;99.90
52943;DHT22;38809;53.300;6.614;2022-10-16T16:40:18;13.90;99.90
52943;DHT22;38809;53.300;6.614;2022-10-16T16:42:44;13.90;99.90
52943;DHT22;38809;53.300;6.614;2022-10-16T16:45:12;13.90;99.90
52943;DHT22;38809;53.300;6.614;2022-10-16T16:47:38;13.90;99.90
52943;DHT22;38809;53.300;6.614;2022-10-16T16:50:04;13.80;99.90
52943;DHT22;38809;53.300;6.614;2022-10-16T16:52:30;13.60;99.90
52943;DHT22;38809;53.300;6.614;2022-10-16T16:54:56;13.50;99.90
52943;DHT22;38809;53.300;6.614;2022-10-16T16:57:21;13.40;99.90
52943;DHT22;38809;53.300;6.614;2022-10-16T16:59:50;13.30;99.90
52943;DHT22;38809;53.300;6.614;2022-10-16T17:02:15;13.40;99.90
52943;DHT22;38809;53.300;6.614;2022-10-16T17:04:41;13.40;99.90
52943;DHT22;38809;53.300;6.614;2022-10-16T17:07:07;14.00;99.90
52943;DHT22;38809;53.300;6.614;2022-10-16T17:09:33;13.30;99.90
52943;DHT22;38809;53.300;6.614;2022-10-16T17:11:59;13.10;99.90
52943;DHT22;38809;53.300;6.614;2022-10-16T17:14:25;13.00;99.90
52943;DHT22;38809;53.300;6.614;2022-10-16T17:16:52;12.80;99.90
52943;DHT22;38809;53.300;6.614;2022-10-16T17:19:19;12.10;99.90
52943;DHT22;38809;53.300;6.614;2022-10-16T17:21:47;12.10;99.90
52943;DHT22;38809;53.300;6.614;2022-10-16T17:24:13;12.10;99.90
52943;DHT22;38809;53.300;6.614;2022-10-16T17:26:39;12.00;99.90
52943;DHT22;38809;53.300;6.614;2022-10-16T17:29:06;12.00;99.90